createdAt,value
2023-04-03T00:01:45.813Z,102178.03
2023-04-03T00:04:15.898Z,102180.66
2023-04-03T00:06:42.763Z,102177.16
2023-04-03T00:09:10.643Z,102177.13
2023-04-03T00:11:37.531Z,102178.00
2023-04-03T00:14:04.321Z,102177.16
2023-04-03T00:16:31.396Z,102178.91
2023-04-03T00:18:58.164Z,102191.09
2023-04-03T00:21:25.290Z,102193.72
2023-04-03T00:23:52.096Z,102191.94
2023-04-03T00:26:18.903Z,102191.06
2023-04-03T00:28:46.142Z,102189.34
2023-04-03T00:31:15.036Z,102182.41
2023-04-03T00:33:41.891Z,102186.78
2023-04-03T00:36:11.084Z,102185.91
2023-04-03T00:38:38.025Z,102186.75
2023-04-03T00:41:04.896Z,102194.66
2023-04-03T00:43:31.802Z,102184.19
2023-04-03T00:45:59.455Z,102190.31
2023-04-03T00:48:34.005Z,102192.94
2023-04-03T00:51:00.783Z,102183.34
2023-04-03T00:53:29.311Z,102179.84
2023-04-03T00:55:56.498Z,102186.84
2023-04-03T00:58:23.904Z,102180.69
2023-04-03T01:00:57.312Z,102185.94
2023-04-03T01:03:24.608Z,102176.34
2023-04-03T01:05:51.737Z,102181.59
2023-04-03T01:08:18.583Z,102187.69
2023-04-03T01:10:46.445Z,102178.94
2023-04-03T01:13:25.035Z,102184.22
2023-04-03T01:15:51.917Z,102191.16
2023-04-03T01:18:19.010Z,102185.06
2023-04-03T01:20:53.527Z,102191.19
2023-04-03T01:23:41.993Z,102188.56
2023-04-03T01:26:10.145Z,102181.59
2023-04-03T01:28:37.220Z,102185.94
2023-04-03T01:31:16.766Z,102199.03
2023-04-03T01:33:45.901Z,102196.41
2023-04-03T01:36:15.774Z,102198.16
2023-04-03T01:38:42.625Z,102193.78
2023-04-03T01:41:09.511Z,102199.91
2023-04-03T01:43:37.127Z,102197.28
2023-04-03T01:46:04.176Z,102211.25
2023-04-03T01:48:30.979Z,102193.81
2023-04-03T01:50:58.039Z,102199.03
2023-04-03T01:53:25.061Z,102201.66
2023-04-03T01:55:51.849Z,102192.94
2023-04-03T01:58:19.110Z,102194.66
2023-04-03T02:00:49.222Z,102196.44
2023-04-03T02:03:16.562Z,102199.00
2023-04-03T02:05:43.723Z,102203.41
2023-04-03T02:08:11.298Z,102201.63
2023-04-03T02:10:38.456Z,102210.34
2023-04-03T02:13:06.441Z,102213.88
2023-04-03T02:15:33.283Z,102209.50
2023-04-03T02:18:00.166Z,102210.34
2023-04-03T02:20:27.469Z,102204.22
2023-04-03T02:22:54.276Z,102210.38
2023-04-03T02:25:21.846Z,102219.97
2023-04-03T02:27:48.716Z,102219.09
2023-04-03T02:30:16.017Z,102216.47
2023-04-03T02:32:43.618Z,102217.38
2023-04-03T02:35:11.167Z,102216.47
2023-04-03T02:37:39.288Z,102221.66
2023-04-03T02:40:07.471Z,102222.50
2023-04-03T02:42:35.688Z,102224.25
2023-04-03T02:45:03.830Z,102223.41
2023-04-03T02:47:30.710Z,102229.50
2023-04-03T02:49:57.634Z,102232.97
2023-04-03T02:52:24.461Z,102232.97
2023-04-03T02:54:53.401Z,102240.81
2023-04-03T02:57:21.228Z,102232.13
2023-04-03T02:59:48.141Z,102236.47
2023-04-03T03:02:14.923Z,102232.06
2023-04-03T03:04:41.734Z,102234.66
2023-04-03T03:07:08.546Z,102238.97
2023-04-03T03:09:35.408Z,102244.22
2023-04-03T03:12:02.251Z,102243.34
2023-04-03T03:14:30.414Z,102250.28
2023-04-03T03:16:57.248Z,102252.03
2023-04-03T03:19:24.009Z,102245.94
2023-04-03T03:21:52.347Z,102249.38
2023-04-03T03:24:19.105Z,102251.09
2023-04-03T03:26:46.026Z,102249.34
2023-04-03T03:29:12.960Z,102247.66
2023-04-03T03:31:40.105Z,102253.66
2023-04-03T03:34:07.645Z,102258.06
2023-04-03T03:36:34.461Z,102258.13
2023-04-03T03:39:01.462Z,102254.56
2023-04-03T03:41:28.412Z,102253.69
2023-04-03T03:43:55.334Z,102251.09
2023-04-03T03:46:23.517Z,102253.72
2023-04-03T03:48:51.042Z,102246.72
2023-04-03T03:51:17.820Z,102258.06
2023-04-03T03:53:44.887Z,102245.84
2023-04-03T03:56:15.612Z,102251.88
2023-04-03T03:58:43.337Z,102257.13
2023-04-03T04:01:10.265Z,102240.63
2023-04-03T04:03:43.947Z,102258.88
2023-04-03T04:06:13.935Z,102258.06
2023-04-03T04:08:40.953Z,102254.59
2023-04-03T04:11:10.563Z,102253.75
2023-04-03T04:13:38.513Z,102250.22
2023-04-03T04:16:05.711Z,102256.25
2023-04-03T04:18:33.725Z,102258.06
2023-04-03T04:21:00.745Z,102262.44
2023-04-03T04:23:28.307Z,102256.31
2023-04-03T04:25:55.538Z,102250.16
2023-04-03T04:28:23.121Z,102258.03
2023-04-03T04:30:52.662Z,102262.34
2023-04-03T04:33:21.234Z,102253.59
2023-04-03T04:35:48.652Z,102253.66
2023-04-03T04:38:17.023Z,102254.56
2023-04-03T04:40:43.863Z,102257.16
2023-04-03T04:43:12.269Z,102261.50
2023-04-03T04:45:39.376Z,102263.34
2023-04-03T04:48:06.887Z,102270.28
2023-04-03T04:50:33.774Z,102274.63
2023-04-03T04:53:00.571Z,102277.38
2023-04-03T04:55:27.386Z,102272.22
2023-04-03T04:57:54.217Z,102267.88
2023-04-03T05:00:22.042Z,102278.31
2023-04-03T05:02:49.216Z,102279.94
2023-04-03T05:05:16.783Z,102286.84
2023-04-03T05:07:43.779Z,102287.72
2023-04-03T05:10:11.148Z,102286.94
2023-04-03T05:12:39.006Z,102289.44
2023-04-03T05:15:06.632Z,102289.44
2023-04-03T05:17:34.498Z,102288.59
2023-04-03T05:20:03.883Z,102294.72
2023-04-03T05:22:31.883Z,102297.34
2023-04-03T05:25:06.108Z,102293.06
2023-04-03T05:27:34.882Z,102295.72
2023-04-03T05:30:02.784Z,102306.09
2023-04-03T05:32:31.767Z,102304.34
2023-04-03T05:35:12.674Z,102295.63
2023-04-03T05:37:43.641Z,102305.25
2023-04-03T05:40:12.018Z,102313.94
2023-04-03T05:42:43.138Z,102305.25
2023-04-03T05:45:10.454Z,102304.38
2023-04-03T05:47:37.588Z,102311.41
2023-04-03T05:50:07.532Z,102308.00
2023-04-03T05:52:35.290Z,102306.25
2023-04-03T05:55:02.606Z,102308.03
2023-04-03T05:57:32.021Z,102314.97
2023-04-03T05:59:59.665Z,102314.16
2023-04-03T06:02:27.830Z,102321.16
2023-04-03T06:04:57.976Z,102317.66
2023-04-03T06:07:28.545Z,102318.59
2023-04-03T06:09:56.978Z,102319.50
2023-04-03T06:12:24.388Z,102327.34
2023-04-03T06:14:52.445Z,102329.06
2023-04-03T06:17:20.014Z,102322.97
2023-04-03T06:19:47.962Z,102329.13
2023-04-03T06:22:15.961Z,102331.75
2023-04-03T06:24:42.969Z,102330.84
2023-04-03T06:27:10.863Z,102330.88
2023-04-03T06:29:38.678Z,102333.47
2023-04-03T06:32:05.671Z,102330.88
2023-04-03T06:34:32.767Z,102343.09
2023-04-03T06:36:59.792Z,102335.25
2023-04-03T06:39:26.919Z,102342.22
2023-04-03T06:41:54.044Z,102341.34
2023-04-03T06:44:29.888Z,102336.09
2023-04-03T06:46:56.781Z,102337.88
2023-04-03T06:49:23.853Z,102333.50
2023-04-03T06:51:51.146Z,102351.88
2023-04-03T06:54:21.587Z,102351.88
2023-04-03T06:56:51.168Z,102346.63
2023-04-03T06:59:19.400Z,102356.25
2023-04-03T07:01:46.619Z,102359.72
2023-04-03T07:04:14.081Z,102374.59
2023-04-03T07:06:41.809Z,102364.13
2023-04-03T07:09:08.952Z,102370.22
2023-04-03T07:11:35.924Z,102366.75
2023-04-03T07:14:02.997Z,102367.63
2023-04-03T07:16:32.178Z,102370.25
2023-04-03T07:18:59.009Z,102376.34
2023-04-03T07:21:25.942Z,102366.75
2023-04-03T07:23:52.668Z,102371.13
2023-04-03T07:26:19.784Z,102367.63
2023-04-03T07:28:49.965Z,102364.97
2023-04-03T07:31:18.450Z,102365.78
2023-04-03T07:33:46.381Z,102368.50
2023-04-03T07:36:15.980Z,102383.34
2023-04-03T07:38:42.829Z,102371.13
2023-04-03T07:41:12.284Z,102384.22
2023-04-03T07:43:40.704Z,102385.94
2023-04-03T07:46:07.857Z,102378.06
2023-04-03T07:48:36.368Z,102376.31
2023-04-03T07:51:03.768Z,102385.03
2023-04-03T07:53:34.220Z,102371.06
2023-04-03T07:56:01.284Z,102384.13
2023-04-03T07:58:28.204Z,102380.59
2023-04-03T08:00:55.077Z,102387.59
2023-04-03T08:03:22.484Z,102384.13
2023-04-03T08:05:50.505Z,102392.00
2023-04-03T08:08:20.074Z,102383.22
2023-04-03T08:10:52.173Z,102384.94
2023-04-03T08:13:19.629Z,102377.03
2023-04-03T08:15:46.533Z,102376.09
2023-04-03T08:18:13.938Z,102389.19
2023-04-03T08:20:41.724Z,102389.19
2023-04-03T08:23:09.002Z,102388.22
2023-04-03T08:25:39.339Z,102380.41
2023-04-03T08:28:06.340Z,102387.41
2023-04-03T08:30:33.256Z,102396.00
2023-04-03T08:33:02.495Z,102396.97
2023-04-03T08:35:29.734Z,102390.03
2023-04-03T08:37:57.786Z,102384.75
2023-04-03T08:40:25.069Z,102387.44
2023-04-03T08:42:58.253Z,102379.63
2023-04-03T08:45:31.339Z,102383.06
2023-04-03T08:48:07.052Z,102380.38
2023-04-03T08:50:45.268Z,102385.75
2023-04-03T08:53:14.180Z,102376.97
2023-04-03T08:55:41.920Z,102380.47
2023-04-03T08:58:13.652Z,102383.13
2023-04-03T09:00:47.150Z,102378.78
2023-04-03T09:03:17.520Z,102382.28
2023-04-03T09:05:52.493Z,102374.47
2023-04-03T09:08:23.112Z,102374.47
2023-04-03T09:10:50.143Z,102380.56
2023-04-03T09:13:26.573Z,102376.16
2023-04-03T09:15:55.056Z,102379.53
2023-04-03T09:18:23.427Z,102373.44
2023-04-03T09:20:50.335Z,102382.19
2023-04-03T09:23:26.359Z,102383.03
2023-04-03T09:25:55.822Z,102374.31
2023-04-03T09:28:22.779Z,102370.78
2023-04-03T09:30:49.750Z,102370.69
2023-04-03T09:33:16.751Z,102375.94
2023-04-03T09:35:50.979Z,102374.88
2023-04-03T09:38:19.390Z,102373.81
2023-04-03T09:40:47.051Z,102367.81
2023-04-03T09:43:18.232Z,102364.34
2023-04-03T09:45:46.222Z,102372.09
2023-04-03T09:48:17.437Z,102372.03
2023-04-03T09:51:06.187Z,102371.19
2023-04-03T09:53:38.029Z,102368.38
2023-04-03T09:56:17.055Z,102363.88
2023-04-03T09:58:53.524Z,102368.16
2023-04-03T10:01:34.130Z,102359.41
2023-04-03T10:04:14.659Z,102350.63
2023-04-03T10:06:44.670Z,102356.75
2023-04-03T10:09:17.972Z,102357.50
2023-04-03T10:11:59.086Z,102352.28
2023-04-03T10:14:26.688Z,102351.34
2023-04-03T10:17:12.600Z,102346.94
2023-04-03T10:19:53.928Z,102343.50
2023-04-03T10:22:24.056Z,102346.91
2023-04-03T10:24:58.703Z,102340.72
2023-04-03T10:27:44.481Z,102342.50
2023-04-03T10:30:30.220Z,102344.34
2023-04-03T10:33:09.557Z,102343.44
2023-04-03T10:35:49.827Z,102333.94
2023-04-03T10:38:17.081Z,102344.25
2023-04-03T10:40:49.192Z,102337.38
2023-04-03T10:43:19.412Z,102334.72
2023-04-03T10:45:58.625Z,102333.81
2023-04-03T10:48:44.502Z,102330.44
2023-04-03T10:51:25.335Z,102328.69
2023-04-03T10:54:01.748Z,102335.78
2023-04-03T10:56:33.657Z,102331.38
2023-04-03T10:59:07.420Z,102334.97
2023-04-03T11:01:35.209Z,102333.16
2023-04-03T11:04:02.595Z,102331.38
2023-04-03T11:06:52.944Z,102333.97
2023-04-03T11:09:21.851Z,102324.56
2023-04-03T11:11:49.370Z,102325.31
2023-04-03T11:14:19.464Z,102320.00
2023-04-03T11:16:54.289Z,102320.91
2023-04-03T11:19:24.827Z,102315.59
2023-04-03T11:22:05.208Z,102322.63
2023-04-03T11:24:32.874Z,102312.19
2023-04-03T11:26:59.949Z,102314.84
2023-04-03T11:29:35.885Z,102314.88
2023-04-03T11:32:03.281Z,102316.59
2023-04-03T11:34:37.717Z,102304.31
2023-04-03T11:37:05.977Z,102315.66
2023-04-03T11:39:33.454Z,102316.53
2023-04-03T11:42:24.546Z,102317.34
2023-04-03T11:44:51.808Z,102309.53
2023-04-03T11:47:38.482Z,102305.19
2023-04-03T11:50:06.520Z,102312.28
2023-04-03T11:52:41.463Z,102305.25
2023-04-03T11:55:26.062Z,102309.50
2023-04-03T11:57:59.308Z,102304.97
2023-04-03T12:00:44.637Z,102302.09
2023-04-03T12:03:31.725Z,102308.19
2023-04-03T12:06:08.243Z,102307.03
2023-04-03T12:08:35.457Z,102299.88
2023-04-03T12:11:14.890Z,102293.84
2023-04-03T12:13:42.970Z,102287.56
2023-04-03T12:16:23.489Z,102293.81
2023-04-03T12:18:50.484Z,102286.75
2023-04-03T12:21:20.098Z,102292.78
2023-04-03T12:23:58.387Z,102290.41
2023-04-03T12:26:32.441Z,102289.72
2023-04-03T12:29:32.080Z,102290.53
2023-04-03T12:32:07.433Z,102291.50
2023-04-03T12:34:42.365Z,102288.19
2023-04-03T12:37:23.138Z,102288.28
2023-04-03T12:40:10.840Z,102283.06
2023-04-03T12:42:44.221Z,102291.00
2023-04-03T12:45:11.279Z,102288.25
2023-04-03T12:47:39.426Z,102291.78
2023-04-03T12:50:14.623Z,102275.84
2023-04-03T12:52:43.353Z,102280.19
2023-04-03T12:55:17.569Z,102287.13
2023-04-03T12:57:44.579Z,102284.50
2023-04-03T13:00:44.439Z,102276.66
2023-04-03T13:03:23.022Z,102276.78
2023-04-03T13:05:49.967Z,102275.09
2023-04-03T13:08:17.228Z,102279.50
2023-04-03T13:10:57.645Z,102270.78
2023-04-03T13:13:24.653Z,102282.25
2023-04-03T13:15:51.917Z,102280.47
2023-04-03T13:18:25.639Z,102279.50
2023-04-03T13:20:53.086Z,102277.91
2023-04-03T13:23:21.768Z,102274.50
2023-04-03T13:25:48.716Z,102279.84
2023-04-03T13:28:20.803Z,102276.34
2023-04-03T13:30:58.310Z,102276.50
2023-04-03T13:33:26.764Z,102266.78
2023-04-03T13:35:58.190Z,102273.78
2023-04-03T13:38:32.711Z,102271.06
2023-04-03T13:41:01.961Z,102270.09
2023-04-03T13:43:29.658Z,102269.91
2023-04-03T13:46:07.570Z,102265.50
2023-04-03T13:48:45.478Z,102267.34
2023-04-03T13:51:16.271Z,102258.53
2023-04-03T13:53:49.153Z,102257.47
2023-04-03T13:56:22.201Z,102253.66
2023-04-03T13:59:17.443Z,102257.84
2023-04-03T14:01:49.840Z,102248.81
2023-04-03T14:04:17.042Z,102251.22
2023-04-03T14:06:43.964Z,102249.59
2023-04-03T14:09:10.862Z,102248.81
2023-04-03T14:11:37.664Z,102243.41
2023-04-03T14:14:07.627Z,102252.53
2023-04-03T14:16:35.615Z,102249.22
2023-04-03T14:19:02.474Z,102251.28
2023-04-03T14:21:29.272Z,102256.66
2023-04-03T14:23:56.065Z,102242.59
2023-04-03T14:26:23.747Z,102247.94
2023-04-03T14:28:51.595Z,102247.19
2023-04-03T14:31:18.900Z,102244.84
2023-04-03T14:33:45.887Z,102250.19
2023-04-03T14:36:14.231Z,102244.88
2023-04-03T14:38:41.506Z,102243.22
2023-04-03T14:41:16.087Z,102248.47
2023-04-03T14:43:44.109Z,102251.13
2023-04-03T14:46:15.513Z,102244.13
2023-04-03T14:48:42.475Z,102243.31
2023-04-03T14:51:11.496Z,102240.69
2023-04-03T14:53:39.361Z,102243.34
2023-04-03T14:56:11.462Z,102231.97
2023-04-03T14:58:38.347Z,102239.03
2023-04-03T15:01:05.397Z,102235.50
2023-04-03T15:03:32.301Z,102236.34
2023-04-03T15:06:00.408Z,102234.59
2023-04-03T15:08:27.496Z,102238.09
2023-04-03T15:10:54.273Z,102234.53
2023-04-03T15:13:21.707Z,102242.28
2023-04-03T15:15:48.554Z,102240.56
2023-04-03T15:18:16.858Z,102226.53
2023-04-03T15:20:44.477Z,102237.09
2023-04-03T15:23:14.844Z,102236.28
2023-04-03T15:25:41.711Z,102231.97
2023-04-03T15:28:09.765Z,102227.00
2023-04-03T15:30:38.172Z,102213.97
2023-04-03T15:33:05.120Z,102213.19
2023-04-03T15:35:32.105Z,102203.41
2023-04-03T15:37:58.975Z,102202.56
2023-04-03T15:40:26.910Z,102200.84
2023-04-03T15:42:54.465Z,102187.16
2023-04-03T15:45:22.432Z,102195.25
2023-04-03T15:47:49.238Z,102192.59
2023-04-03T15:50:16.216Z,102189.19
2023-04-03T15:52:43.124Z,102187.19
2023-04-03T15:55:10.073Z,102191.44
2023-04-03T16:00:04.797Z,102200.75
2023-04-03T16:02:34.088Z,102202.69
2023-04-03T16:05:01.013Z,102206.72
2023-04-03T16:07:28.025Z,102218.47
2023-04-03T16:09:54.929Z,102213.56
2023-04-03T16:12:21.733Z,102218.09
2023-04-03T16:14:48.580Z,102233.91
2023-04-03T16:17:15.402Z,102227.03
2023-04-03T16:19:42.096Z,102231.41
2023-04-03T16:22:09.090Z,102219.22
2023-04-03T16:24:36.916Z,102230.69
2023-04-03T16:27:03.817Z,102225.50
2023-04-03T16:29:30.631Z,102224.63
2023-04-03T16:31:57.805Z,102233.50
2023-04-03T16:34:26.760Z,102229.13
2023-04-03T16:36:53.631Z,102229.09
2023-04-03T16:39:20.700Z,102232.66
2023-04-03T16:41:47.772Z,102231.81
2023-04-03T16:44:14.945Z,102234.50
2023-04-03T16:46:41.832Z,102239.75
2023-04-03T16:49:08.803Z,102233.66
2023-04-03T16:51:35.809Z,102235.44
2023-04-03T16:54:02.707Z,102224.94
2023-04-03T16:56:29.604Z,102227.63
2023-04-03T16:58:56.750Z,102232.91
2023-04-03T17:01:23.781Z,102239.03
2023-04-03T17:03:50.708Z,102226.81
2023-04-03T17:06:18.679Z,102226.00
2023-04-03T17:08:46.221Z,102233.94
2023-04-03T17:11:26.974Z,102228.69
2023-04-03T17:13:53.892Z,102232.19
2023-04-03T17:16:20.812Z,102228.69
2023-04-03T17:18:47.692Z,102227.88
2023-04-03T17:21:15.026Z,102225.25
2023-04-03T17:23:42.386Z,102225.25
2023-04-03T17:26:09.430Z,102236.72
2023-04-03T17:28:37.182Z,102232.28
2023-04-03T17:31:04.195Z,102234.94
2023-04-03T17:33:31.642Z,102237.56
2023-04-03T17:35:59.129Z,102227.13
2023-04-03T17:38:25.968Z,102221.91
2023-04-03T17:40:52.739Z,102236.81
2023-04-03T17:43:19.614Z,102233.31
2023-04-03T17:45:46.702Z,102230.78
2023-04-03T17:51:07.933Z,102244.84
2023-04-03T17:53:34.788Z,102240.47
2023-04-03T17:56:08.342Z,102235.25
2023-04-03T17:58:35.758Z,102237.88
2023-04-03T18:01:13.012Z,102242.31
2023-04-03T18:03:40.475Z,102247.59
2023-04-03T18:06:08.842Z,102238.00
2023-04-03T18:08:36.752Z,102244.16
2023-04-03T18:11:03.941Z,102249.38
2023-04-03T18:13:30.763Z,102239.78
2023-04-03T18:15:57.637Z,102249.44
2023-04-03T18:18:24.471Z,102249.38
2023-04-03T18:20:52.400Z,102249.34
2023-04-03T18:23:19.427Z,102247.66
2023-04-03T18:25:46.254Z,102252.88
2023-04-03T18:28:13.082Z,102244.97
2023-04-03T18:30:40.097Z,102252.88
2023-04-03T18:33:07.111Z,102247.63
2023-04-03T18:35:33.924Z,102246.72
2023-04-03T18:38:00.739Z,102250.19
2023-04-03T18:40:27.872Z,102251.03
2023-04-03T18:42:54.731Z,102256.34
2023-04-03T18:45:22.790Z,102257.22
2023-04-03T18:47:49.721Z,102258.09
2023-04-03T18:50:17.203Z,102261.63
2023-04-03T18:52:44.054Z,102254.66
2023-04-03T18:55:15.929Z,102252.84
2023-04-03T18:57:42.777Z,102257.28
2023-04-03T19:00:10.495Z,102258.19
2023-04-03T19:02:37.593Z,102251.13
2023-04-03T19:05:05.272Z,102262.47
2023-04-03T19:07:32.013Z,102261.59
2023-04-03T19:09:58.836Z,102246.66
2023-04-03T19:12:26.277Z,102254.59
2023-04-03T19:14:53.141Z,102249.38
2023-04-03T19:17:19.960Z,102251.97
2023-04-03T19:19:46.704Z,102252.88
2023-04-03T19:22:13.389Z,102258.09
2023-04-03T19:24:40.114Z,102256.38
2023-04-03T19:27:06.929Z,102247.66
2023-04-03T19:29:33.690Z,102251.19
2023-04-03T19:32:00.591Z,102249.44
2023-04-03T19:34:27.384Z,102242.50
2023-04-03T19:36:55.604Z,102255.63
2023-04-03T19:39:22.418Z,102248.63
2023-04-03T19:41:49.748Z,102246.03
2023-04-03T19:44:16.774Z,102246.00
2023-04-03T19:46:50.741Z,102243.38
2023-04-03T19:49:18.301Z,102250.38
2023-04-03T19:51:45.122Z,102245.13
2023-04-03T19:54:12.342Z,102253.84
2023-04-03T19:56:39.094Z,102257.41
2023-04-03T19:59:06.010Z,102246.91
2023-04-03T20:01:34.962Z,102246.94
2023-04-03T20:04:02.278Z,102250.38
2023-04-03T20:06:29.253Z,102252.16
2023-04-03T20:08:56.190Z,102253.00
2023-04-03T20:11:23.343Z,102253.88
2023-04-03T20:16:42.833Z,102251.31
2023-04-03T20:19:09.784Z,102258.31
2023-04-03T20:21:36.631Z,102252.19
2023-04-03T20:24:04.006Z,102262.69
2023-04-03T20:26:31.878Z,102258.34
2023-04-03T20:28:59.751Z,102250.50
2023-04-03T20:31:27.234Z,102255.75
2023-04-03T20:33:54.175Z,102250.50
2023-04-03T20:36:22.103Z,102244.38
2023-04-03T20:38:49.252Z,102251.41
2023-04-03T20:41:16.442Z,102248.78
2023-04-03T20:43:44.097Z,102257.53
2023-04-03T20:46:20.490Z,102247.03
2023-04-03T20:48:48.281Z,102252.31
2023-04-03T20:51:16.231Z,102247.03
2023-04-03T20:53:43.329Z,102240.94
2023-04-03T20:56:10.181Z,102241.81
2023-04-03T20:58:39.075Z,102243.56
2023-04-03T21:01:22.947Z,102241.81
2023-04-03T21:03:50.877Z,102241.81
2023-04-03T21:06:36.762Z,102242.69
2023-04-03T21:09:22.502Z,102237.47
2023-04-03T21:12:08.243Z,102239.19
2023-04-03T21:14:53.887Z,102237.47
2023-04-03T21:17:20.694Z,102241.81
2023-04-03T21:19:48.945Z,102243.56
2023-04-03T21:22:16.371Z,102233.09
2023-04-03T21:24:43.493Z,102227.84
2023-04-03T21:27:10.379Z,102231.31
2023-04-03T21:29:37.619Z,102235.66
2023-04-03T21:32:04.525Z,102242.66
2023-04-03T21:34:31.383Z,102233.91
2023-04-03T21:37:02.312Z,102239.13
2023-04-03T21:39:29.232Z,102240.88
2023-04-03T21:45:20.804Z,102239.13
2023-04-03T21:47:47.944Z,102235.63
2023-04-03T21:50:14.770Z,102231.22
2023-04-03T21:52:41.577Z,102232.97
2023-04-03T21:55:09.087Z,102238.22
2023-04-03T21:57:36.410Z,102238.13
2023-04-03T22:00:05.092Z,102237.25
2023-04-03T22:02:34.093Z,102227.72
2023-04-03T22:05:00.939Z,102227.69
2023-04-03T22:07:27.667Z,102232.06
2023-04-03T22:09:54.525Z,102233.78
2023-04-03T22:12:21.275Z,102234.63
2023-04-03T22:14:48.247Z,102228.50
2023-04-03T22:17:15.075Z,102227.63
2023-04-03T22:19:41.957Z,102225.88
2023-04-03T22:22:09.220Z,102225.00
2023-04-03T22:24:36.019Z,102236.31
2023-04-03T22:27:03.077Z,102227.59
2023-04-03T22:29:29.891Z,102234.53
2023-04-03T22:31:56.727Z,102237.19
2023-04-03T22:34:23.902Z,102222.38
2023-04-03T22:36:51.056Z,102220.63
2023-04-03T22:39:19.659Z,102230.16
2023-04-03T22:41:46.493Z,102229.31
2023-04-03T22:44:13.379Z,102224.09
2023-04-03T22:46:40.210Z,102229.31
2023-04-03T22:49:07.781Z,102229.31
2023-04-03T22:51:34.609Z,102227.56
2023-04-03T22:54:01.685Z,102220.56
2023-04-03T22:56:28.494Z,102225.84
2023-04-03T22:58:56.147Z,102228.41
2023-04-03T23:01:25.388Z,102224.03
2023-04-03T23:03:52.313Z,102225.78
2023-04-03T23:06:19.106Z,102231.88
2023-04-03T23:08:45.877Z,102228.38
2023-04-03T23:11:12.847Z,102232.72
2023-04-03T23:13:39.781Z,102227.50
2023-04-03T23:16:06.936Z,102226.56
2023-04-03T23:18:34.064Z,102226.59
2023-04-03T23:21:01.807Z,102232.69
2023-04-03T23:23:28.792Z,102223.09
2023-04-03T23:25:59.468Z,102235.28
2023-04-03T23:28:26.743Z,102232.69
2023-04-03T23:30:57.278Z,102230.94
2023-04-03T23:33:24.015Z,102229.16
2023-04-03T23:35:52.341Z,102228.25
2023-04-03T23:38:19.194Z,102236.16
2023-04-03T23:40:46.351Z,102225.75
2023-04-03T23:43:13.100Z,102217.81
2023-04-03T23:45:40.032Z,102223.88
2023-04-03T23:48:06.882Z,102224.72
2023-04-03T23:50:33.890Z,102223.88
2023-04-03T23:53:01.157Z,102223.88
2023-04-03T23:55:28.175Z,102227.28
2023-04-03T23:57:54.984Z,102222.06
